createdAt,value
2022-10-24T00:02:10.273Z,38.03
2022-10-24T00:04:57.696Z,37.10
2022-10-24T00:07:26.906Z,35.10
2022-10-24T00:09:55.866Z,37.80
2022-10-24T00:12:24.840Z,37.17
2022-10-24T00:14:53.804Z,37.27
2022-10-24T00:17:24.175Z,44.97
2022-10-24T00:19:54.430Z,58.27
2022-10-24T00:22:23.570Z,49.43
2022-10-24T00:24:52.417Z,48.10
2022-10-24T00:27:21.468Z,41.73
2022-10-24T00:29:50.666Z,43.37
2022-10-24T00:32:19.560Z,37.83
2022-10-24T00:34:49.996Z,36.93
2022-10-24T00:39:52.685Z,34.47
2022-10-24T00:42:21.654Z,32.40
2022-10-24T00:44:53.677Z,32.23
2022-10-24T00:47:24.958Z,31.37
2022-10-24T00:50:16.335Z,32.17
2022-10-24T00:52:47.720Z,32.53
2022-10-24T00:55:35.294Z,32.50
2022-10-24T00:58:05.602Z,33.60
2022-10-24T01:00:35.668Z,34.30
2022-10-24T01:03:04.805Z,34.50
2022-10-24T01:05:41.299Z,44.47
2022-10-24T01:08:21.187Z,42.17
2022-10-24T01:10:59.238Z,46.80
2022-10-24T01:13:40.001Z,45.87
2022-10-24T01:16:15.324Z,41.27
2022-10-24T01:18:50.828Z,38.53
2022-10-24T01:21:30.597Z,39.37
2022-10-24T01:24:43.176Z,43.20
2022-10-24T01:27:40.810Z,44.20
2022-10-24T01:30:13.398Z,42.87
2022-10-24T01:32:48.423Z,41.90
2022-10-24T01:35:36.552Z,38.13
2022-10-24T01:38:12.777Z,43.33
2022-10-24T01:40:50.941Z,45.30
2022-10-24T01:43:24.743Z,51.37
2022-10-24T01:45:59.636Z,52.53
2022-10-24T01:48:30.553Z,48.23
2022-10-24T01:51:01.785Z,50.73
2022-10-24T01:53:32.499Z,48.93
2022-10-24T01:56:19.964Z,46.00
2022-10-24T01:58:48.873Z,42.47
2022-10-24T02:01:24.048Z,44.37
2022-10-24T02:03:57.365Z,50.97
2022-10-24T02:06:30.921Z,46.47
2022-10-24T02:11:41.970Z,46.93
2022-10-24T02:14:16.384Z,46.20
2022-10-24T02:17:05.812Z,42.30
2022-10-24T02:19:35.021Z,40.03
2022-10-24T02:22:11.233Z,38.63
2022-10-24T02:24:47.473Z,36.13
2022-10-24T02:27:20.039Z,35.93
2022-10-24T02:29:52.588Z,33.33
2022-10-24T02:32:44.356Z,32.00
2022-10-24T02:35:16.391Z,32.13
2022-10-24T02:37:50.377Z,31.80
2022-10-24T02:40:21.625Z,37.27
2022-10-24T02:42:54.990Z,41.03
2022-10-24T02:45:24.826Z,39.93
2022-10-24T02:47:59.264Z,35.60
2022-10-24T02:50:28.788Z,36.37
2022-10-24T02:52:57.551Z,33.90
2022-10-24T02:55:26.556Z,34.33
2022-10-24T02:57:56.223Z,34.47
2022-10-24T03:00:25.192Z,34.07
2022-10-24T03:02:55.658Z,33.87
2022-10-24T03:05:24.589Z,36.47
2022-10-24T03:07:53.514Z,43.60
2022-10-24T03:10:22.958Z,43.00
2022-10-24T03:12:51.731Z,45.37
2022-10-24T03:15:39.414Z,46.53
2022-10-24T03:18:09.999Z,49.77
2022-10-24T03:20:39.052Z,45.57
2022-10-24T03:23:08.063Z,45.73
2022-10-24T03:25:36.974Z,43.57
2022-10-24T03:28:24.337Z,45.57
2022-10-24T03:30:53.868Z,45.67
2022-10-24T03:33:24.612Z,46.73
2022-10-24T03:35:54.409Z,50.13
2022-10-24T03:38:24.214Z,49.33
2022-10-24T03:40:53.502Z,47.53
2022-10-24T03:43:22.436Z,46.63
2022-10-24T03:45:51.313Z,42.63
2022-10-24T03:48:20.506Z,44.63
2022-10-24T03:50:50.851Z,42.20
2022-10-24T03:53:19.734Z,41.60
2022-10-24T03:55:48.546Z,38.20
2022-10-24T03:58:17.428Z,37.13
2022-10-24T04:00:46.398Z,32.23
2022-10-24T04:03:15.201Z,42.50
2022-10-24T04:05:44.083Z,43.93
2022-10-24T04:08:32.818Z,45.23
2022-10-24T04:11:01.861Z,44.57
2022-10-24T04:13:30.679Z,44.00
2022-10-24T04:15:59.444Z,48.27
2022-10-24T04:18:28.496Z,48.30
2022-10-24T04:20:57.336Z,46.30
2022-10-24T04:23:27.409Z,44.10
2022-10-24T04:25:57.814Z,46.17
2022-10-24T04:28:27.366Z,47.43
2022-10-24T04:30:57.500Z,48.53
2022-10-24T04:33:26.319Z,51.23
2022-10-24T04:35:55.276Z,60.77
2022-10-24T04:38:24.526Z,58.50
2022-10-24T04:40:55.055Z,56.00
2022-10-24T04:43:26.288Z,50.07
2022-10-24T04:45:55.317Z,47.17
2022-10-24T04:48:24.168Z,46.77
2022-10-24T04:50:53.381Z,47.10
2022-10-24T04:53:22.161Z,44.40
2022-10-24T04:55:50.981Z,42.30
2022-10-24T04:58:19.955Z,40.50
2022-10-24T05:00:50.522Z,40.83
2022-10-24T05:03:19.770Z,41.47
2022-10-24T05:05:48.890Z,41.03
2022-10-24T05:08:17.922Z,41.70
2022-10-24T05:10:51.656Z,41.47
2022-10-24T05:13:20.822Z,42.30
2022-10-24T05:15:51.124Z,40.40
2022-10-24T05:18:19.905Z,41.63
2022-10-24T05:20:48.864Z,39.60
2022-10-24T05:23:17.767Z,39.73
2022-10-24T05:25:46.564Z,37.37
2022-10-24T05:28:15.472Z,37.87
2022-10-24T05:30:45.336Z,37.00
2022-10-24T05:33:15.616Z,35.33
2022-10-24T05:35:44.980Z,33.63
2022-10-24T05:38:13.870Z,35.27
2022-10-24T05:40:42.710Z,33.00
2022-10-24T05:43:11.682Z,32.43
2022-10-24T05:45:40.641Z,32.83
2022-10-24T05:48:13.257Z,33.13
2022-10-24T05:50:44.185Z,35.30
2022-10-24T05:53:13.326Z,36.27
2022-10-24T05:55:42.207Z,44.03
2022-10-24T05:58:11.027Z,43.13
2022-10-24T06:00:39.914Z,44.23
2022-10-24T06:03:08.730Z,44.70
2022-10-24T06:05:37.468Z,41.63
2022-10-24T06:08:07.802Z,39.27
2022-10-24T06:10:36.939Z,36.03
2022-10-24T06:13:05.809Z,31.20
2022-10-24T06:15:34.659Z,29.80
2022-10-24T06:18:03.477Z,28.50
2022-10-24T06:20:32.270Z,29.00
2022-10-24T06:23:01.046Z,26.77
2022-10-24T06:25:31.369Z,27.40
2022-10-24T06:28:00.752Z,25.97
2022-10-24T06:30:29.614Z,27.33
2022-10-24T06:32:58.401Z,26.17
2022-10-24T06:35:27.251Z,26.27
2022-10-24T06:37:55.938Z,26.57
2022-10-24T06:40:24.707Z,25.80
2022-10-24T06:42:54.875Z,24.07
2022-10-24T06:45:24.156Z,25.17
2022-10-24T06:47:54.340Z,25.20
2022-10-24T06:50:23.662Z,24.33
2022-10-24T06:52:52.561Z,24.23
2022-10-24T06:55:21.774Z,25.97
2022-10-24T06:57:50.629Z,25.30
2022-10-24T07:00:21.159Z,24.43
2022-10-24T07:02:50.060Z,24.47
2022-10-24T07:05:19.081Z,23.77
2022-10-24T07:07:48.093Z,24.07
2022-10-24T07:10:17.182Z,24.07
2022-10-24T07:12:46.181Z,23.53
2022-10-24T07:15:15.207Z,24.57
2022-10-24T07:17:46.597Z,24.10
2022-10-24T07:20:16.265Z,19.37
2022-10-24T07:22:45.850Z,24.60
2022-10-24T07:25:15.175Z,24.73
2022-10-24T07:27:44.395Z,25.27
2022-10-24T07:30:18.378Z,25.33
2022-10-24T07:32:49.005Z,25.30
2022-10-24T07:35:18.063Z,24.50
2022-10-24T07:37:47.051Z,25.93
2022-10-24T07:40:16.034Z,26.20
2022-10-24T07:42:44.892Z,23.97
2022-10-24T07:45:14.219Z,25.17
2022-10-24T07:47:43.850Z,22.47
2022-10-24T07:50:15.891Z,20.57
2022-10-24T07:52:44.911Z,21.30
2022-10-24T07:55:13.723Z,20.20
2022-10-24T07:57:47.046Z,21.03
2022-10-24T08:00:42.514Z,19.53
2022-10-24T08:03:13.826Z,18.93
2022-10-24T08:05:44.467Z,18.40
2022-10-24T08:08:35.078Z,18.73
2022-10-24T08:11:02.714Z,22.00
2022-10-24T08:13:31.561Z,18.40
2022-10-24T08:16:00.434Z,16.70
2022-10-24T08:18:30.369Z,16.27
2022-10-24T08:21:03.249Z,13.60
2022-10-24T08:23:52.891Z,17.97
2022-10-24T08:26:27.515Z,17.80
2022-10-24T08:28:57.884Z,17.43
2022-10-24T08:31:27.990Z,17.17
2022-10-24T08:33:57.502Z,11.57
2022-10-24T08:36:29.131Z,10.33
2022-10-24T08:38:58.839Z,8.37
2022-10-24T08:41:32.881Z,8.57
2022-10-24T08:44:05.624Z,8.33
2022-10-24T08:46:49.208Z,8.70
2022-10-24T08:49:29.194Z,9.00
2022-10-24T08:52:03.394Z,8.77
2022-10-24T08:54:38.178Z,8.70
2022-10-24T08:57:08.858Z,8.63
2022-10-24T08:59:39.073Z,8.13
2022-10-24T09:02:18.829Z,9.07
2022-10-24T09:04:54.032Z,8.80
2022-10-24T09:07:25.696Z,11.90
2022-10-24T09:10:05.407Z,10.87
2022-10-24T09:12:37.545Z,10.00
2022-10-24T09:15:15.280Z,10.50
2022-10-24T09:17:45.504Z,10.00
2022-10-24T09:20:24.442Z,10.03
2022-10-24T09:23:15.475Z,11.27
2022-10-24T09:25:49.067Z,10.30
2022-10-24T09:28:18.909Z,9.30
2022-10-24T09:30:48.057Z,6.90
2022-10-24T09:33:26.570Z,6.93
2022-10-24T09:35:58.997Z,5.77
2022-10-24T09:38:34.928Z,4.50
2022-10-24T09:41:07.338Z,8.93
2022-10-24T09:43:41.317Z,6.07
2022-10-24T09:46:14.245Z,6.07
2022-10-24T09:48:56.608Z,5.40
2022-10-24T09:51:34.191Z,10.83
2022-10-24T09:54:08.658Z,9.07
2022-10-24T09:56:40.060Z,5.57
2022-10-24T09:59:21.619Z,5.53
2022-10-24T10:01:50.582Z,4.73
2022-10-24T10:04:24.049Z,5.60
2022-10-24T10:06:53.567Z,6.93
2022-10-24T10:09:32.064Z,5.83
2022-10-24T10:12:03.040Z,8.40
2022-10-24T10:14:32.769Z,11.30
2022-10-24T10:17:05.288Z,9.80
2022-10-24T10:19:38.427Z,9.97
2022-10-24T10:22:22.393Z,8.50
2022-10-24T10:25:30.887Z,8.30
2022-10-24T10:28:02.404Z,9.23
2022-10-24T10:30:33.681Z,9.27
2022-10-24T10:33:20.525Z,8.10
2022-10-24T10:35:56.755Z,7.20
2022-10-24T10:38:44.652Z,7.23
2022-10-24T10:41:30.062Z,8.63
2022-10-24T10:44:12.179Z,8.90
2022-10-24T10:46:49.825Z,9.57
2022-10-24T10:49:25.665Z,8.47
2022-10-24T10:51:59.789Z,9.70
2022-10-24T10:54:44.052Z,7.93
2022-10-24T10:57:17.944Z,7.70
2022-10-24T10:59:58.707Z,6.97
2022-10-24T11:02:49.326Z,6.77
2022-10-24T11:05:37.496Z,7.53
2022-10-24T11:08:31.405Z,7.93
2022-10-24T11:11:23.199Z,6.70
2022-10-24T11:13:58.122Z,6.00
2022-10-24T11:16:34.181Z,5.10
2022-10-24T11:19:23.347Z,5.43
2022-10-24T11:21:55.978Z,4.90
2022-10-24T11:24:26.623Z,5.50
2022-10-24T11:27:03.422Z,5.97
2022-10-24T11:29:41.481Z,9.53
2022-10-24T11:32:19.295Z,7.67
2022-10-24T11:35:01.961Z,6.97
2022-10-24T11:37:34.702Z,6.60
2022-10-24T11:40:08.049Z,5.50
2022-10-24T11:42:44.023Z,6.03
2022-10-24T11:45:41.322Z,5.80
2022-10-24T11:48:18.330Z,6.27
2022-10-24T11:50:51.382Z,6.50
2022-10-24T11:53:43.142Z,6.60
2022-10-24T11:56:18.652Z,8.27
2022-10-24T11:58:56.444Z,7.93
2022-10-24T12:02:00.384Z,8.10
2022-10-24T12:04:55.219Z,7.53
2022-10-24T12:08:11.756Z,7.87
2022-10-24T12:10:54.946Z,7.37
2022-10-24T12:13:46.176Z,6.93
2022-10-24T12:16:26.111Z,8.43
2022-10-24T12:19:02.028Z,8.33
2022-10-24T12:21:39.654Z,7.30
2022-10-24T12:24:20.781Z,13.67
2022-10-24T12:26:57.176Z,39.60
2022-10-24T12:29:28.102Z,11.90
2022-10-24T12:31:57.084Z,11.87
2022-10-24T12:34:49.139Z,9.40
2022-10-24T12:37:37.947Z,7.80
2022-10-24T12:40:43.894Z,8.23
2022-10-24T12:43:28.379Z,8.40
2022-10-24T12:46:00.362Z,6.33
2022-10-24T12:49:17.164Z,3.80
2022-10-24T12:51:47.466Z,4.30
2022-10-24T12:54:18.569Z,3.53
2022-10-24T12:57:24.449Z,3.97
2022-10-24T12:59:56.421Z,4.10
2022-10-24T13:02:52.901Z,3.50
2022-10-24T13:05:53.073Z,3.53
2022-10-24T13:08:44.154Z,4.13
2022-10-24T13:11:30.419Z,4.23
2022-10-24T13:14:31.716Z,3.97
2022-10-24T13:17:25.249Z,5.40
2022-10-24T13:20:05.573Z,4.40
2022-10-24T13:22:38.297Z,5.53
2022-10-24T13:25:34.861Z,5.00
2022-10-24T13:28:45.812Z,4.97
2022-10-24T13:31:49.111Z,6.13
2022-10-24T13:34:37.819Z,5.90
2022-10-24T13:37:14.507Z,5.23
2022-10-24T13:39:48.127Z,5.53
2022-10-24T13:42:40.146Z,5.57
2022-10-24T13:45:24.127Z,6.43
2022-10-24T13:47:58.248Z,6.20
2022-10-24T13:50:30.989Z,5.13
2022-10-24T13:53:03.550Z,5.23
2022-10-24T13:55:36.932Z,7.00
2022-10-24T13:58:13.236Z,8.40
2022-10-24T14:00:44.980Z,6.70
2022-10-24T14:03:17.163Z,7.20
2022-10-24T14:05:49.887Z,9.33
2022-10-24T14:08:28.279Z,7.20
2022-10-24T14:11:00.954Z,7.73
2022-10-24T14:13:33.223Z,6.17
2022-10-24T14:16:25.870Z,8.03
2022-10-24T14:19:32.504Z,8.70
2022-10-24T14:22:04.101Z,9.67
2022-10-24T14:24:33.551Z,8.77
2022-10-24T14:27:02.560Z,8.47
2022-10-24T14:29:33.562Z,8.40
2022-10-24T14:32:04.280Z,7.63
2022-10-24T14:34:36.308Z,9.27
2022-10-24T14:37:07.741Z,8.73
2022-10-24T14:39:38.340Z,9.63
2022-10-24T14:42:13.383Z,8.47
2022-10-24T14:44:46.750Z,8.83
2022-10-24T14:47:39.887Z,8.93
2022-10-24T14:50:36.858Z,8.97
2022-10-24T14:53:27.207Z,24.23
2022-10-24T14:55:59.054Z,18.87
2022-10-24T14:58:30.018Z,24.13
2022-10-24T15:01:01.603Z,24.73
2022-10-24T15:03:31.001Z,27.53
2022-10-24T15:06:08.365Z,27.03
2022-10-24T15:08:38.730Z,21.97
2022-10-24T15:11:21.968Z,19.07
2022-10-24T15:14:06.242Z,15.83
2022-10-24T15:16:43.060Z,11.83
2022-10-24T15:19:18.775Z,11.73
2022-10-24T15:21:50.987Z,10.30
2022-10-24T15:24:25.046Z,11.87
2022-10-24T15:27:00.122Z,14.73
2022-10-24T15:29:32.023Z,13.97
2022-10-24T15:32:21.611Z,29.50
2022-10-24T15:34:50.479Z,35.90
2022-10-24T15:37:31.312Z,41.50
2022-10-24T15:40:07.705Z,44.53
2022-10-24T15:42:36.800Z,49.17
2022-10-24T15:45:14.273Z,47.03
2022-10-24T15:47:55.618Z,56.23
2022-10-24T15:50:25.798Z,52.90
2022-10-24T15:53:04.871Z,54.50
2022-10-24T15:55:52.090Z,53.03
2022-10-24T15:58:21.029Z,58.67
2022-10-24T16:00:50.944Z,54.17
2022-10-24T16:03:24.322Z,51.00
2022-10-24T16:06:11.987Z,56.27
2022-10-24T16:08:40.849Z,55.20
2022-10-24T16:11:11.546Z,47.37
2022-10-24T16:13:40.858Z,42.37
2022-10-24T16:16:09.880Z,32.97
2022-10-24T16:18:40.190Z,30.57
2022-10-24T16:21:09.549Z,32.07
2022-10-24T16:23:38.443Z,34.50
2022-10-24T16:26:07.627Z,34.93
2022-10-24T16:28:36.513Z,40.43
2022-10-24T16:31:06.248Z,34.63
2022-10-24T16:33:35.117Z,34.63
2022-10-24T16:36:06.079Z,35.23
2022-10-24T16:38:35.671Z,36.03
2022-10-24T16:41:04.386Z,35.90
2022-10-24T16:43:36.314Z,35.80
2022-10-24T16:46:06.914Z,36.47
2022-10-24T16:48:35.680Z,40.60
2022-10-24T16:51:11.510Z,42.20
2022-10-24T16:53:40.395Z,42.00
2022-10-24T16:56:11.473Z,40.00
2022-10-24T16:58:40.984Z,37.33
2022-10-24T17:01:28.442Z,33.07
2022-10-24T17:03:57.256Z,29.57
2022-10-24T17:06:27.637Z,31.63
2022-10-24T17:08:56.516Z,30.70
2022-10-24T17:11:44.221Z,32.60
2022-10-24T17:14:15.072Z,29.27
2022-10-24T17:16:44.922Z,29.93
2022-10-24T17:19:16.534Z,28.47
2022-10-24T17:21:48.870Z,26.90
2022-10-24T17:24:20.009Z,26.30
2022-10-24T17:26:50.407Z,31.70
2022-10-24T17:29:38.137Z,37.37
2022-10-24T17:32:10.704Z,36.70
2022-10-24T17:34:40.824Z,40.40
2022-10-24T17:37:20.692Z,37.57
2022-10-24T17:39:52.664Z,38.20
2022-10-24T17:42:21.961Z,46.67
2022-10-24T17:44:51.239Z,48.33
2022-10-24T17:47:20.202Z,49.97
2022-10-24T17:49:49.045Z,48.27
2022-10-24T17:52:24.068Z,51.13
2022-10-24T17:54:53.510Z,49.80
2022-10-24T17:57:22.431Z,49.30
2022-10-24T17:59:51.400Z,46.47
2022-10-24T18:02:20.575Z,35.40
2022-10-24T18:04:52.399Z,26.87
2022-10-24T18:07:23.026Z,22.33
2022-10-24T18:09:58.344Z,19.37
2022-10-24T18:12:27.374Z,20.43
2022-10-24T18:14:57.104Z,24.60
2022-10-24T18:17:26.183Z,25.17
2022-10-24T18:20:15.788Z,24.77
2022-10-24T18:22:47.197Z,24.53
2022-10-24T18:25:20.312Z,23.43
2022-10-24T18:27:52.577Z,23.37
2022-10-24T18:30:22.481Z,22.77
2022-10-24T18:32:51.441Z,22.23
2022-10-24T18:35:22.647Z,26.07
2022-10-24T18:40:27.200Z,24.63
2022-10-24T18:43:00.061Z,26.53
2022-10-24T18:45:29.811Z,40.67
2022-10-24T18:47:59.541Z,42.60
2022-10-24T18:50:28.884Z,42.43
2022-10-24T18:53:05.676Z,40.73
2022-10-24T18:55:40.391Z,43.70
2022-10-24T18:58:14.141Z,44.00
2022-10-24T19:00:43.963Z,43.40
2022-10-24T19:03:20.701Z,42.93
2022-10-24T19:05:54.875Z,39.00
2022-10-24T19:08:27.603Z,40.90
2022-10-24T19:10:57.564Z,40.03
2022-10-24T19:13:27.985Z,41.30
2022-10-24T19:16:01.290Z,42.33
2022-10-24T19:18:32.818Z,38.63
2022-10-24T19:21:21.706Z,36.53
2022-10-24T19:23:52.529Z,36.03
2022-10-24T19:26:21.727Z,34.77
2022-10-24T19:28:50.458Z,31.73
2022-10-24T19:31:19.371Z,30.63
2022-10-24T19:33:48.378Z,30.07
2022-10-24T19:36:19.369Z,29.20
2022-10-24T19:38:48.622Z,25.80
2022-10-24T19:41:18.750Z,25.90
2022-10-24T19:43:47.694Z,26.10
2022-10-24T19:46:20.492Z,26.80
2022-10-24T19:48:50.416Z,25.80
2022-10-24T19:51:20.836Z,26.30
2022-10-24T19:53:51.026Z,25.30
2022-10-24T19:56:25.262Z,24.70
2022-10-24T19:58:55.206Z,23.37
2022-10-24T20:01:26.588Z,23.33
2022-10-24T20:03:56.766Z,22.10
2022-10-24T20:06:27.507Z,22.60
2022-10-24T20:08:56.317Z,22.40
2022-10-24T20:11:27.329Z,24.63
2022-10-24T20:13:59.447Z,24.57
2022-10-24T20:16:28.619Z,24.20
2022-10-24T20:18:57.623Z,26.27
2022-10-24T20:21:26.575Z,28.93
2022-10-24T20:24:00.200Z,29.00
2022-10-24T20:26:31.579Z,34.60
2022-10-24T20:29:00.649Z,35.30
2022-10-24T20:31:31.669Z,36.00
2022-10-24T20:34:07.971Z,33.57
2022-10-24T20:36:38.748Z,34.73
2022-10-24T20:39:08.658Z,32.70
2022-10-24T20:41:40.062Z,33.40
2022-10-24T20:44:27.604Z,32.73
2022-10-24T20:46:59.116Z,28.57
2022-10-24T20:49:28.172Z,27.87
2022-10-24T20:51:57.132Z,30.43
2022-10-24T20:54:26.168Z,31.13
2022-10-24T20:56:56.624Z,47.97
2022-10-24T20:59:44.288Z,68.00
2022-10-24T21:02:13.366Z,50.50
2022-10-24T21:04:42.182Z,56.30
2022-10-24T21:07:12.299Z,78.63
2022-10-24T21:09:41.206Z,76.10
2022-10-24T21:12:11.771Z,76.57
2022-10-24T21:14:44.217Z,75.90
2022-10-24T21:17:13.236Z,75.53
2022-10-24T21:19:42.200Z,73.10
2022-10-24T21:22:11.159Z,74.10
2022-10-24T21:24:40.336Z,71.23
2022-10-24T21:27:10.854Z,64.57
2022-10-24T21:29:39.845Z,58.60
2022-10-24T21:32:09.166Z,56.57
2022-10-24T21:34:37.962Z,47.90
2022-10-24T21:37:06.937Z,45.70
2022-10-24T21:39:38.647Z,45.90
2022-10-24T21:42:07.570Z,51.80
2022-10-24T21:44:37.911Z,52.97
2022-10-24T21:47:06.795Z,61.90
2022-10-24T21:49:35.945Z,66.67
2022-10-24T21:52:04.958Z,67.03
2022-10-24T21:54:34.050Z,64.53
2022-10-24T21:57:03.431Z,72.40
2022-10-24T21:59:32.330Z,79.13
2022-10-24T22:02:02.682Z,87.77
2022-10-24T22:04:31.875Z,93.47
2022-10-24T22:07:00.681Z,95.23
2022-10-24T22:09:29.727Z,96.57
2022-10-24T22:11:59.059Z,101.57
2022-10-24T22:14:28.040Z,81.07
2022-10-24T22:16:56.787Z,66.30
2022-10-24T22:19:27.311Z,65.03
2022-10-24T22:21:56.198Z,75.47
2022-10-24T22:24:26.537Z,78.30
2022-10-24T22:26:55.794Z,71.57
2022-10-24T22:29:25.985Z,71.57
2022-10-24T22:31:55.555Z,76.30
2022-10-24T22:34:27.366Z,77.67
2022-10-24T22:37:13.022Z,86.50
2022-10-24T22:39:43.387Z,82.37
2022-10-24T22:42:15.948Z,79.07
2022-10-24T22:45:06.175Z,71.23
2022-10-24T22:47:47.097Z,65.23
2022-10-24T22:50:43.887Z,58.27
2022-10-24T22:53:15.418Z,53.77
2022-10-24T22:55:55.511Z,50.73
2022-10-24T22:58:25.102Z,48.70
2022-10-24T23:01:00.013Z,32.07
2022-10-24T23:03:36.007Z,34.50
2022-10-24T23:06:12.943Z,34.87
2022-10-24T23:08:44.135Z,43.47
2022-10-24T23:11:14.530Z,53.63
2022-10-24T23:13:44.406Z,52.17
2022-10-24T23:16:23.529Z,58.27
2022-10-24T23:18:52.881Z,61.87
2022-10-24T23:21:29.669Z,63.13
2022-10-24T23:23:59.221Z,58.90
2022-10-24T23:26:37.877Z,73.47
2022-10-24T23:29:12.214Z,76.10
2022-10-24T23:31:41.666Z,79.33
2022-10-24T23:34:11.670Z,76.87
2022-10-24T23:36:46.878Z,73.67
2022-10-24T23:39:16.413Z,75.67
2022-10-24T23:41:45.925Z,88.67
2022-10-24T23:44:15.243Z,80.17
2022-10-24T23:46:48.026Z,80.33
2022-10-24T23:49:26.229Z,83.67
2022-10-24T23:52:04.167Z,77.03
2022-10-24T23:54:34.418Z,69.80
2022-10-24T23:57:03.909Z,64.30
2022-10-24T23:59:32.714Z,53.33
